Time;durP1;ratioP1;P1;durP2;ratioP2;P2;SDS_P1;SDS_P2;PMS_P1;PMS_P2;Temp;Humidity;BMP_temperature;BMP_pressure;BME280_temperature;BME280_humidity;BME280_pressure;Samples;Min_cycle;Max_cycle;Signal;HPM_P1;HPM_P2
2022/08/14 00:02:14;;;;;;;10.13;7.25;;;;;;;20.81;73.81;101151.41;5004486;28;20505;-67
2022/08/14 00:04:39;;;;;;;10.15;7.13;;;;;;;20.71;75.03;101156.06;5022416;28;20038;-67
2022/08/14 00:07:05;;;;;;;9.55;7.57;;;;;;;20.66;76.23;101145.69;5022404;28;20037;-67
2022/08/14 00:09:31;;;;;;;11.05;8.20;;;;;;;20.34;79.94;101151.63;5022305;28;20836;-67
2022/08/14 00:11:57;;;;;;;8.30;7.13;;;;;;;20.59;76.71;101149.19;5022503;28;20029;-67
2022/08/14 00:14:24;;;;;;;13.93;8.40;;;;;;;20.50;77.38;101153.69;5022533;28;20514;-67
2022/08/14 00:16:51;;;;;;;11.98;7.85;;;;;;;20.21;79.92;101140.28;5022164;28;20569;-67
2022/08/14 00:19:17;;;;;;;11.85;8.25;;;;;;;20.25;79.84;101144.41;5021784;28;20041;-67
2022/08/14 00:21:43;;;;;;;8.82;7.13;;;;;;;20.17;79.48;101130.75;5021425;28;20136;-66
2022/08/14 00:24:08;;;;;;;8.80;7.88;;;;;;;20.46;77.27;101124.28;5004182;28;20816;-67
2022/08/14 00:26:34;;;;;;;9.52;7.75;;;;;;;20.51;76.76;101127.44;5028249;28;20037;-67
2022/08/14 00:28:59;;;;;;;10.45;7.20;;;;;;;20.67;75.82;101138.41;5003623;28;20049;-67
2022/08/14 00:31:26;;;;;;;9.85;7.35;;;;;;;20.64;75.83;101126.03;5021486;28;20235;-67
2022/08/14 00:33:52;;;;;;;13.70;7.90;;;;;;;20.76;75.07;101128.50;5020977;28;20041;-67
2022/08/14 00:36:17;;;;;;;11.45;7.63;;;;;;;20.68;75.89;101132.84;5021324;28;20108;-67
2022/08/14 00:38:43;;;;;;;12.40;8.10;;;;;;;20.66;76.35;101125.88;4995709;28;20049;-67
2022/08/14 00:41:08;;;;;;;11.73;7.57;;;;;;;20.62;76.24;101127.19;5001899;28;20034;-67
2022/08/14 00:43:35;;;;;;;11.55;7.57;;;;;;;20.65;75.98;101122.31;5007240;28;20430;-67
2022/08/14 00:46:09;;;;;;;12.00;7.97;;;;;;;20.64;76.66;101126.03;4994556;28;20053;-68
2022/08/14 00:48:36;;;;;;;14.68;8.13;;;;;;;20.60;76.77;101130.06;5020686;28;20125;-67
2022/08/14 00:51:03;;;;;;;10.40;7.32;;;;;;;20.55;77.32;101123.41;5018292;28;20450;-67
2022/08/14 00:53:28;;;;;;;11.63;7.88;;;;;;;20.37;78.29;101123.34;4999627;28;20092;-67
2022/08/14 00:55:56;;;;;;;10.43;8.10;;;;;;;20.24;80.19;101115.63;4988162;28;20041;-68
2022/08/14 00:58:31;;;;;;;11.70;8.07;;;;;;;20.39;78.52;101115.94;5002064;28;20037;-67
2022/08/14 01:01:06;;;;;;;12.30;7.93;;;;;;;20.21;80.29;101106.94;5003021;28;20045;-67
2022/08/14 01:03:38;;;;;;;11.05;7.40;;;;;;;20.33;78.95;101106.59;5020950;28;20426;-67
2022/08/14 01:06:05;;;;;;;12.05;7.88;;;;;;;20.35;78.67;101106.41;5020413;28;20080;-67
2022/08/14 01:08:31;;;;;;;9.60;7.32;;;;;;;20.23;80.32;101094.97;5021156;28;20509;-67
2022/08/14 01:10:57;;;;;;;12.85;8.15;;;;;;;20.13;80.79;101094.16;5020528;28;20052;-66
2022/08/14 01:13:34;;;;;;;11.80;8.23;;;;;;;20.15;80.35;101094.88;4986586;28;20049;-66
2022/08/14 01:16:02;;;;;;;15.55;8.63;;;;;;;20.23;79.69;101088.69;5014596;28;20037;-67
2022/08/14 01:21:15;;;;;;;9.88;7.68;;;;;;;20.27;79.75;101077.38;5008681;28;20088;-66
2022/08/14 01:23:50;;;;;;;14.38;9.80;;;;;;;19.97;82.98;101084.00;5021138;28;20037;-67
2022/08/14 01:26:22;;;;;;;13.98;8.98;;;;;;;19.94;82.48;101078.91;5023582;28;20033;-67
2022/08/14 01:28:50;;;;;;;;;;;;;;;19.77;83.39;101074.31;5017971;28;20045;-67
2022/08/14 01:31:17;;;;;;;12.52;9.10;;;;;;;19.44;86.09;101073.03;5020638;28;20014;-67
2022/08/14 01:33:47;;;;;;;16.08;9.52;;;;;;;19.56;83.54;101074.53;5003332;28;20052;-67
2022/08/14 01:36:15;;;;;;;13.05;9.43;;;;;;;19.64;83.11;101063.84;5024593;28;20049;-66
2022/08/14 01:38:44;;;;;;;15.07;9.93;;;;;;;19.45;83.82;101066.63;5021472;28;20075;-66
2022/08/14 01:41:13;;;;;;;17.67;9.15;;;;;;;19.37;84.85;101070.91;5015102;28;20075;-66
2022/08/14 01:43:44;;;;;;;12.45;9.73;;;;;;;19.36;84.71;101062.94;5011230;28;20800;-66
2022/08/14 01:46:10;;;;;;;13.15;9.77;;;;;;;19.26;86.53;101062.13;5013082;28;20057;-67
2022/08/14 01:48:40;;;;;;;15.00;9.68;;;;;;;19.25;85.85;101064.00;5024707;28;20152;-66
2022/08/14 01:51:07;;;;;;;20.00;10.63;;;;;;;19.09;87.78;101056.50;5024584;28;20502;-66
2022/08/14 01:53:32;;;;;;;16.45;11.50;;;;;;;19.00;89.07;101057.38;5025215;28;20102;-67
2022/08/14 01:56:03;;;;;;;16.17;11.23;;;;;;;18.94;88.79;101060.66;5024165;28;20034;-67
2022/08/14 01:58:29;;;;;;;17.25;10.13;;;;;;;19.05;87.86;101056.94;5025441;28;20041;-67
2022/08/14 02:00:57;;;;;;;16.63;11.20;;;;;;;19.08;88.36;101051.25;5023510;28;20060;-66
2022/08/14 02:03:29;;;;;;;15.77;10.43;;;;;;;18.95;89.42;101046.16;5006227;28;20780;-66
2022/08/14 02:05:58;;;;;;;20.33;11.50;;;;;;;19.07;88.29;101052.22;4993434;28;20038;-69
2022/08/14 02:08:26;;;;;;;12.90;10.15;;;;;;;18.83;91.55;101048.19;5006636;28;20540;-66
2022/08/14 02:11:15;;;;;;;17.90;11.18;;;;;;;18.95;90.49;101034.50;5020095;28;20049;-66
2022/08/14 02:13:39;;;;;;;14.35;11.40;;;;;;;18.76;90.62;101036.25;5016838;28;20047;-67
2022/08/14 02:16:05;;;;;;;18.52;12.07;;;;;;;18.69;92.26;101039.69;5007789;28;20094;-66
2022/08/14 02:18:32;;;;;;;15.60;11.98;;;;;;;18.75;91.94;101033.69;5022749;28;20041;-67
2022/08/14 02:20:58;;;;;;;14.65;10.98;;;;;;;18.72;92.29;101037.53;5030595;28;20132;-67
2022/08/14 02:23:24;;;;;;;20.25;12.07;;;;;;;18.64;92.15;101034.69;5010833;28;20037;-66
2022/08/14 02:25:49;;;;;;;16.58;11.57;;;;;;;18.68;91.66;101036.13;5017908;28;20088;-67
2022/08/14 02:28:15;;;;;;;17.23;12.63;;;;;;;18.55;93.07;101032.84;5005111;28;20041;-66
2022/08/14 02:30:40;;;;;;;15.90;11.27;;;;;;;18.44;94.19;101033.84;5023906;28;20037;-67
2022/08/14 02:33:06;;;;;;;21.33;12.65;;;;;;;18.41;94.08;101027.88;5006393;28;20049;-67
2022/08/14 02:35:32;;;;;;;14.88;11.75;;;;;;;18.45;94.81;101022.03;5021598;28;20040;-67
2022/08/14 02:37:57;;;;;;;16.00;11.38;;;;;;;18.47;93.71;101021.88;5005759;28;20600;-66
2022/08/14 02:40:23;;;;;;;16.92;12.13;;;;;;;18.55;93.61;101022.88;5002411;28;20146;-67
2022/08/14 02:42:49;;;;;;;17.60;11.40;;;;;;;18.45;94.31;101024.75;5023543;28;20073;-66
2022/08/14 02:45:14;;;;;;;15.82;11.73;;;;;;;18.22;95.90;101026.88;5010892;28;20053;-66
2022/08/14 02:47:40;;;;;;;19.70;12.38;;;;;;;18.14;97.14;101028.59;5010833;28;20045;-66
2022/08/14 02:50:06;;;;;;;17.33;12.23;;;;;;;18.01;97.38;101028.88;5023288;28;20041;-67
2022/08/14 02:52:32;;;;;;;23.67;12.80;;;;;;;17.96;98.20;101034.69;5023265;28;20037;-67
2022/08/14 02:54:58;;;;;;;20.17;12.93;;;;;;;17.87;97.76;101027.41;5023527;28;20080;-66
2022/08/14 02:57:25;;;;;;;17.00;12.15;;;;;;;17.79;99.47;101033.53;5023196;28;20056;-67
2022/08/14 02:59:52;;;;;;;15.38;12.20;;;;;;;17.72;100.00;101036.88;5023411;28;20048;-67
2022/08/14 03:02:18;;;;;;;17.73;13.23;;;;;;;17.68;100.00;101027.38;5005775;28;20286;-67
2022/08/14 03:04:43;;;;;;;21.73;12.55;;;;;;;17.46;100.00;101033.81;5024147;28;20577;-67
2022/08/14 03:07:09;;;;;;;15.80;12.25;;;;;;;17.45;100.00;101024.88;5024610;28;20053;-67
2022/08/14 03:09:38;;;;;;;16.95;12.50;;;;;;;17.56;100.00;101024.78;5024852;28;20084;-67
2022/08/14 03:12:05;;;;;;;17.73;12.10;;;;;;;17.65;100.00;101024.94;5002774;28;20080;-67
2022/08/14 03:14:34;;;;;;;17.45;12.10;;;;;;;17.66;99.70;101027.50;5020635;28;20077;-67
2022/08/14 03:16:59;;;;;;;19.45;12.75;;;;;;;17.57;100.00;101025.63;5020971;28;20079;-66
2022/08/14 03:19:25;;;;;;;20.38;12.75;;;;;;;17.58;100.00;101022.81;5025752;28;20589;-67
2022/08/14 03:21:50;;;;;;;21.45;13.90;;;;;;;17.61;100.00;101032.44;5016482;28;20065;-67
2022/08/14 03:24:16;;;;;;;17.67;12.55;;;;;;;17.61;100.00;101024.34;5005736;28;20129;-67
2022/08/14 03:26:45;;;;;;;18.95;13.15;;;;;;;17.59;100.00;101018.25;5023551;28;20117;-67
2022/08/14 03:29:13;;;;;;;19.33;13.75;;;;;;;17.69;100.00;101019.13;5024056;28;20041;-67
2022/08/14 03:31:39;;;;;;;17.90;12.93;;;;;;;17.60;100.00;101018.13;5005600;28;20421;-66
2022/08/14 03:34:09;;;;;;;20.65;13.75;;;;;;;17.67;100.00;101026.53;5012083;28;20041;-67
2022/08/14 03:36:35;;;;;;;17.25;13.07;;;;;;;17.55;100.00;101020.38;5024463;28;20041;-66
2022/08/14 03:39:02;;;;;;;18.05;12.10;;;;;;;17.43;100.00;101023.34;4986881;28;20072;-67
2022/08/14 03:41:28;;;;;;;16.77;13.07;;;;;;;17.16;100.00;101019.38;5020571;28;20121;-67
2022/08/14 03:44:01;;;;;;;19.92;12.95;;;;;;;17.08;100.00;101016.53;5015836;28;20152;-67
2022/08/14 03:46:33;;;;;;;22.02;13.88;;;;;;;17.23;100.00;101017.88;5020715;28;20041;-67
2022/08/14 03:49:01;;;;;;;24.27;13.82;;;;;;;17.35;100.00;101027.56;5024099;28;20101;-67
2022/08/14 03:51:27;;;;;;;23.33;15.00;;;;;;;17.38;100.00;101021.03;4982902;28;20082;-67
2022/08/14 03:53:56;;;;;;;23.88;14.95;;;;;;;17.35;100.00;101022.16;5002354;28;20386;-67
2022/08/14 03:56:21;;;;;;;20.70;14.63;;;;;;;17.14;100.00;101015.97;5025133;28;20045;-67
2022/08/14 03:58:49;;;;;;;20.40;14.48;;;;;;;17.01;100.00;101012.66;5013363;28;20092;-67
2022/08/14 04:01:18;;;;;;;18.35;13.85;;;;;;;16.80;100.00;101008.16;5017497;28;20714;-67
2022/08/14 04:03:45;;;;;;;21.23;14.43;;;;;;;16.73;100.00;101009.69;5023403;28;20060;-67
2022/08/14 04:06:10;;;;;;;20.77;14.85;;;;;;;16.85;100.00;101010.44;5027769;28;20059;-67
2022/08/14 04:08:37;;;;;;;21.80;15.32;;;;;;;16.86;100.00;101008.59;5027854;28;20037;-67
2022/08/14 04:11:04;;;;;;;20.55;15.55;;;;;;;16.91;100.00;101009.91;5029034;28;20053;-67
2022/08/14 04:13:32;;;;;;;22.40;15.18;;;;;;;16.92;100.00;101008.94;5030298;28;20107;-67
2022/08/14 04:15:58;;;;;;;22.25;15.45;;;;;;;16.96;100.00;101007.66;5029794;28;20041;-66
2022/08/14 04:18:25;;;;;;;24.60;17.52;;;;;;;16.83;100.00;100999.81;5029190;28;20576;-67
2022/08/14 04:20:50;;;;;;;29.00;17.60;;;;;;;16.65;100.00;100997.81;5031308;28;20041;-67
2022/08/14 04:23:16;;;;;;;25.23;17.27;;;;;;;16.80;100.00;101002.78;5011254;28;20045;-67
2022/08/14 04:25:42;;;;;;;25.10;16.83;;;;;;;17.07;100.00;101006.75;5034317;28;20048;-67
2022/08/14 04:28:10;;;;;;;24.48;17.58;;;;;;;16.98;100.00;101010.25;5029746;28;20029;-67
2022/08/14 04:30:39;;;;;;;23.63;15.60;;;;;;;16.80;100.00;101001.91;5010720;28;20049;-67
2022/08/14 04:33:07;;;;;;;26.85;18.20;;;;;;;16.85;100.00;101001.53;5010414;28;20038;-67
2022/08/14 04:35:33;;;;;;;26.35;17.42;;;;;;;17.04;100.00;101005.16;5027657;28;20041;-67
2022/08/14 04:43:37;;;;;;;29.00;16.85;;;;;;;17.03;100.00;100991.84;5010331;28;20132;-67
2022/08/14 04:46:17;;;;;;;27.33;16.38;;;;;;;17.15;100.00;100990.75;5007129;28;20037;-67
2022/08/14 04:48:42;;;;;;;22.70;16.23;;;;;;;17.43;100.00;100990.97;5008535;28;20096;-67
2022/08/14 04:51:12;;;;;;;24.88;16.92;;;;;;;17.64;100.00;100985.50;5025919;28;20049;-66
2022/08/14 04:53:42;;;;;;;23.83;16.77;;;;;;;17.76;100.00;100982.53;5018927;28;20037;-69
2022/08/14 04:56:09;;;;;;;23.88;16.13;;;;;;;17.88;100.00;100993.22;5029095;28;20143;-67
2022/08/14 04:58:35;;;;;;;22.42;16.80;;;;;;;17.98;100.00;100991.38;5014649;28;20092;-67
2022/08/14 05:01:05;;;;;;;22.80;15.75;;;;;;;17.81;100.00;100992.91;5013777;28;20061;-66
2022/08/14 05:03:33;;;;;;;26.30;15.82;;;;;;;17.83;100.00;100989.09;5012887;28;20038;-66
2022/08/14 05:06:01;;;;;;;28.42;16.90;;;;;;;17.87;100.00;100989.66;4995553;28;20060;-67
2022/08/14 05:08:28;;;;;;;23.42;16.13;;;;;;;18.04;100.00;100983.56;5023325;28;20041;-66
2022/08/14 05:10:55;;;;;;;22.55;16.42;;;;;;;17.93;100.00;100972.06;5002969;28;20156;-66
2022/08/14 05:13:23;;;;;;;23.70;15.93;;;;;;;18.10;100.00;100966.78;5021379;28;20037;-67
2022/08/14 05:15:51;;;;;;;23.20;17.13;;;;;;;18.08;100.00;100968.78;5023811;28;20060;-67
2022/08/14 05:18:19;;;;;;;32.25;17.52;;;;;;;18.41;99.66;100973.88;5022846;28;20041;-69
2022/08/14 05:20:47;;;;;;;22.98;17.88;;;;;;;18.29;100.00;100967.78;5028320;28;20033;-68
2022/08/14 05:23:15;;;;;;;23.15;16.80;;;;;;;18.32;100.00;100980.97;5022339;28;20838;-68
2022/08/14 05:25:41;;;;;;;23.40;15.85;;;;;;;18.42;100.00;100971.00;5021921;28;20051;-68
2022/08/14 05:28:17;;;;;;;25.30;16.80;;;;;;;18.66;98.58;100965.13;5022065;28;20059;-68
2022/08/14 05:30:55;;;;;;;22.13;16.60;;;;;;;18.60;100.00;100965.72;5024686;28;20042;-68
2022/08/14 05:33:24;;;;;;;22.60;16.75;;;;;;;18.48;100.00;100958.81;5024120;28;20041;-68
2022/08/14 05:35:51;;;;;;;25.30;17.83;;;;;;;18.67;100.00;100958.72;5023440;28;20131;-68
2022/08/14 05:38:20;;;;;;;25.65;17.02;;;;;;;18.98;98.39;100961.25;5023666;28;20042;-68
2022/08/14 05:40:46;;;;;;;26.83;17.83;;;;;;;18.86;98.71;100956.00;5016026;28;20025;-68
2022/08/14 05:43:13;;;;;;;24.55;17.55;;;;;;;19.01;98.39;100963.63;5022877;28;20044;-68
2022/08/14 05:45:39;;;;;;;24.95;17.45;;;;;;;19.12;97.62;100958.03;5023569;28;20534;-68
2022/08/14 05:48:06;;;;;;;23.52;17.38;;;;;;;19.20;96.46;100955.44;5010667;28;20596;-68
2022/08/14 05:50:33;;;;;;;24.73;16.02;;;;;;;19.36;95.75;100954.78;5000074;28;20042;-69
2022/08/14 05:53:00;;;;;;;25.67;17.90;;;;;;;19.39;96.41;100946.38;5020335;28;20049;-68
2022/08/14 05:55:26;;;;;;;25.02;17.88;;;;;;;19.65;95.15;100947.34;4994063;28;20524;-68
2022/08/14 05:57:54;;;;;;;26.67;17.55;;;;;;;19.64;94.79;100948.34;5013431;28;20041;-69
2022/08/14 06:00:24;;;;;;;34.67;17.98;;;;;;;19.77;93.10;100942.56;4975482;28;20030;-67
2022/08/14 06:02:49;;;;;;;77.53;26.45;;;;;;;19.97;92.79;100936.97;5011159;28;20041;-68
2022/08/14 06:05:15;;;;;;;26.65;16.90;;;;;;;20.37;91.05;100931.03;5020496;28;20493;-68
2022/08/14 06:07:41;;;;;;;26.25;17.08;;;;;;;20.51;90.67;100938.63;5019347;28;20536;-68
2022/08/14 06:10:09;;;;;;;22.65;16.50;;;;;;;20.81;89.51;100936.44;5019341;28;20061;-67
2022/08/14 06:12:35;;;;;;;20.05;15.27;;;;;;;21.20;85.78;100934.06;5005017;28;20107;-68
2022/08/14 06:15:01;;;;;;;21.45;15.13;;;;;;;21.73;83.69;100944.56;4995359;28;20048;-68
2022/08/14 06:17:26;;;;;;;23.30;14.05;;;;;;;22.19;79.96;100936.00;5007783;28;20037;-69
2022/08/14 06:19:52;;;;;;;21.67;14.98;;;;;;;21.92;82.06;100932.53;5011630;28;20042;-68
2022/08/14 06:22:18;;;;;;;22.98;14.90;;;;;;;21.99;80.45;100932.72;5023448;28;20046;-68
2022/08/14 06:24:43;;;;;;;23.70;14.65;;;;;;;22.20;79.81;100930.38;5009260;28;20143;-69
2022/08/14 06:27:09;;;;;;;18.83;13.63;;;;;;;22.78;77.31;100924.81;5009193;28;20042;-68
2022/08/14 06:29:35;;;;;;;17.10;13.73;;;;;;;22.97;74.80;100928.00;5019732;28;20041;-68
2022/08/14 06:32:02;;;;;;;17.38;12.85;;;;;;;22.90;76.40;100923.47;5000257;28;20049;-68
2022/08/14 06:34:27;;;;;;;17.10;13.07;;;;;;;23.14;74.97;100927.94;5019724;28;20033;-68
2022/08/14 06:36:55;;;;;;;17.20;12.95;;;;;;;23.40;73.23;100924.94;5018037;28;20075;-68
2022/08/14 06:39:21;;;;;;;16.20;12.02;;;;;;;23.39;74.35;100934.09;4999265;28;20051;-68
2022/08/14 06:41:47;;;;;;;18.10;13.30;;;;;;;23.23;74.55;100935.88;5014845;28;20073;-68
2022/08/14 06:44:12;;;;;;;14.38;11.13;;;;;;;23.46;72.33;100927.78;5013976;28;20098;-68
2022/08/14 06:46:38;;;;;;;16.63;11.85;;;;;;;23.57;72.87;100925.69;5009375;28;20029;-68
2022/08/14 06:49:03;;;;;;;18.40;12.70;;;;;;;23.76;71.04;100917.91;5017839;28;20041;-68
2022/08/14 06:51:29;;;;;;;18.10;11.82;;;;;;;24.02;69.83;100931.16;5016245;28;20029;-68
2022/08/14 06:53:54;;;;;;;17.77;11.07;;;;;;;24.29;68.61;100928.88;4987987;28;20585;-69
2022/08/14 06:56:20;;;;;;;18.20;12.68;;;;;;;24.62;67.42;100926.72;5014992;28;20037;-69
2022/08/14 06:58:45;;;;;;;15.35;12.30;;;;;;;24.59;66.56;100921.63;5010370;28;20080;-68
2022/08/14 07:06:40;;;;;;;16.65;11.80;;;;;;;25.21;65.50;100917.69;5022388;28;20208;-69
2022/08/14 07:09:05;;;;;;;14.00;11.50;;;;;;;25.31;64.39;100916.34;5019351;28;20033;-69
2022/08/14 07:11:31;;;;;;;19.98;11.88;;;;;;;25.82;63.61;100923.66;5013170;28;20049;-68
2022/08/14 07:13:59;;;;;;;15.80;10.60;;;;;;;25.82;63.52;100924.50;5022831;28;20109;-69
2022/08/14 07:16:25;;;;;;;14.73;11.60;;;;;;;26.55;61.42;100914.19;5007164;28;20581;-68
2022/08/14 07:18:50;;;;;;;16.85;11.82;;;;;;;26.41;59.99;100908.78;5020302;28;20040;-68
2022/08/14 07:21:15;;;;;;;14.88;10.63;;;;;;;26.33;60.08;100921.56;5022939;28;20048;-68
2022/08/14 07:23:41;;;;;;;15.40;11.30;;;;;;;26.59;59.58;100912.72;5017472;28;20697;-69
2022/08/14 07:26:07;;;;;;;13.35;11.38;;;;;;;26.09;61.25;100917.38;5026628;28;20037;-66
2022/08/14 07:28:37;;;;;;;15.27;11.10;;;;;;;26.69;58.40;100915.09;5020625;28;20033;-68
2022/08/14 07:31:11;;;;;;;18.98;10.32;;;;;;;27.04;59.59;100915.09;5020702;28;20134;-67
2022/08/14 07:33:47;;;;;;;13.52;10.63;;;;;;;27.25;57.44;100915.00;5019941;28;20033;-67
2022/08/14 07:36:14;;;;;;;14.10;11.18;;;;;;;27.66;55.87;100908.56;5020269;28;20790;-68
2022/08/14 07:38:40;;;;;;;13.73;11.27;;;;;;;27.05;58.53;100903.94;5004073;28;20466;-67
2022/08/14 07:41:08;;;;;;;14.90;11.13;;;;;;;27.60;58.44;100896.56;5020438;28;20056;-67
2022/08/14 07:43:34;;;;;;;12.75;10.27;;;;;;;27.53;55.83;100901.19;5020234;28;20021;-67
2022/08/14 07:46:00;;;;;;;14.43;10.50;;;;;;;28.03;55.17;100900.88;5020678;28;20493;-67
2022/08/14 07:48:25;;;;;;;12.10;9.90;;;;;;;27.20;55.38;100906.56;5005967;28;20697;-68
2022/08/14 07:50:52;;;;;;;13.80;10.30;;;;;;;27.29;54.93;100905.31;5021016;28;20052;-68
2022/08/14 07:53:21;;;;;;;13.50;9.00;;;;;;;28.12;56.11;100894.13;4993318;28;20141;-66
2022/08/14 07:55:47;;;;;;;15.52;9.65;;;;;;;28.67;53.58;100882.88;4995199;28;20650;-67
2022/08/14 07:58:15;;;;;;;11.30;9.13;;;;;;;28.69;52.97;100884.34;4993183;28;20037;-68
2022/08/14 08:00:41;;;;;;;11.68;9.68;;;;;;;28.72;55.53;100889.44;5002088;28;20129;-68
2022/08/14 08:03:10;;;;;;;11.63;9.38;;;;;;;28.83;53.33;100886.00;5014463;28;20051;-68
2022/08/14 08:05:38;;;;;;;17.55;9.52;;;;;;;29.07;51.80;100881.72;4984695;28;20047;-67
2022/08/14 08:08:05;;;;;;;10.35;9.25;;;;;;;28.41;52.41;100883.78;5016184;28;20038;-68
2022/08/14 08:10:31;;;;;;;15.18;9.10;;;;;;;28.73;52.74;100880.13;4994463;28;20045;-68
2022/08/14 08:13:13;;;;;;;11.38;8.80;;;;;;;27.88;52.99;100879.97;5002821;28;20049;-68
2022/08/14 08:15:49;;;;;;;10.77;9.38;;;;;;;27.93;54.83;100873.03;5005364;28;20065;-68
2022/08/14 08:18:16;;;;;;;10.02;8.70;;;;;;;28.17;52.72;100874.31;5019984;28;20846;-68
2022/08/14 08:20:48;;;;;;;14.40;9.35;;;;;;;28.37;53.19;100877.88;5019400;28;20033;-69
2022/08/14 08:23:19;;;;;;;11.48;8.98;;;;;;;28.20;52.63;100873.84;5018384;28;20052;-68
2022/08/14 08:25:47;;;;;;;12.17;9.37;;;;;;;28.51;54.04;100874.03;5012188;28;20041;-67
2022/08/14 08:28:14;;;;;;;11.82;9.15;;;;;;;28.73;51.51;100880.13;5019065;28;20029;-68
2022/08/14 08:30:48;;;;;;;13.43;9.45;;;;;;;29.11;50.23;100874.72;4991348;28;20038;-68
2022/08/14 08:33:16;;;;;;;11.10;8.95;;;;;;;28.68;51.78;100873.59;5015896;28;20073;-67
2022/08/14 08:35:42;;;;;;;10.80;9.63;;;;;;;28.65;51.78;100872.13;4994890;28;20029;-68
2022/08/14 08:38:10;;;;;;;13.68;9.02;;;;;;;28.57;52.95;100864.97;5012181;28;20124;-67
2022/08/14 08:40:45;;;;;;;14.07;9.20;;;;;;;28.54;52.05;100862.66;5019719;28;20041;-67
2022/08/14 08:43:38;;;;;;;13.25;8.77;;;;;;;29.17;51.85;100862.03;5020397;28;20084;-68
2022/08/14 08:46:09;;;;;;;16.13;9.68;;;;;;;28.99;51.21;100864.66;5007077;28;20049;-69
2022/08/14 08:49:07;;;;;;;10.82;8.95;;;;;;;28.76;52.75;100865.94;4999507;28;20038;-68
2022/08/14 08:51:39;;;;;;;12.45;9.32;;;;;;;28.54;54.43;100859.06;4982764;28;20056;-67
2022/08/14 08:54:11;;;;;;;12.43;9.65;;;;;;;28.77;50.58;100851.19;5016641;28;20040;-68
2022/08/14 08:56:45;;;;;;;14.85;8.63;;;;;;;28.60;52.03;100861.78;4996909;28;20041;-67
2022/08/14 08:59:19;;;;;;;10.52;8.75;;;;;;;28.59;53.26;100862.84;5007021;28;20113;-66
2022/08/14 09:01:57;;;;;;;11.63;8.35;;;;;;;28.55;51.21;100858.00;5015450;28;20041;-68
2022/08/14 09:04:24;;;;;;;10.45;8.65;;;;;;;28.82;50.87;100856.03;5007700;28;20034;-67
2022/08/14 09:06:51;;;;;;;11.68;9.38;;;;;;;28.52;51.38;100859.28;5011457;28;20033;-67
2022/08/14 09:09:21;;;;;;;10.90;8.55;;;;;;;28.92;51.66;100867.41;5015182;28;20030;-67
2022/08/14 09:11:47;;;;;;;11.90;8.95;;;;;;;28.88;53.95;100875.22;4977302;28;20407;-67
2022/08/14 09:14:12;;;;;;;9.43;7.88;;;;;;;28.94;50.01;100865.28;4977000;28;20046;-67
2022/08/14 09:16:39;;;;;;;10.18;8.40;;;;;;;28.78;51.19;100860.25;4973904;28;20046;-66
2022/08/14 09:19:05;;;;;;;9.63;8.45;;;;;;;28.60;51.04;100855.44;4979876;28;20034;-67
2022/08/14 09:21:33;;;;;;;9.63;7.50;;;;;;;28.65;49.68;100845.50;4971112;28;20149;-67
2022/08/14 09:23:59;;;;;;;14.25;8.80;;;;;;;28.86;50.56;100838.88;4975167;28;20045;-67
2022/08/14 09:26:25;;;;;;;10.63;8.10;;;;;;;29.15;50.02;100840.25;4971534;28;20917;-67
2022/08/14 09:28:51;;;;;;;11.98;8.57;;;;;;;29.07;50.50;100825.97;4974103;28;20034;-67
2022/08/14 09:31:18;;;;;;;8.27;7.47;;;;;;;29.42;50.04;100829.97;4980236;28;20522;-67
2022/08/14 09:34:21;;;;;;;16.88;8.05;;;;;;;29.52;50.53;100840.47;4978287;28;20094;-67
2022/08/14 09:36:49;;;;;;;10.20;7.68;;;;;;;29.18;49.11;100843.66;4962696;28;20058;-67
2022/08/14 09:39:40;;;;;;;13.57;7.35;;;;;;;29.33;50.52;100845.03;4979087;28;20534;-67
2022/08/14 09:42:19;;;;;;;11.77;7.93;;;;;;;29.78;51.34;100835.88;4971755;28;20644;-67
2022/08/14 09:45:05;;;;;;;12.00;7.65;;;;;;;29.66;48.05;100831.06;4969046;28;20435;-67
2022/08/14 09:47:43;;;;;;;7.85;7.05;;;;;;;29.12;48.51;100818.75;4975732;28;20057;-67
2022/08/14 09:50:45;;;;;;;11.68;7.65;;;;;;;29.36;51.55;100811.59;4976365;28;20027;-66
2022/08/14 09:53:16;;;;;;;9.35;6.35;;;;;;;29.80;47.65;100795.25;4952280;28;20074;-66
2022/08/14 09:55:41;;;;;;;9.88;7.13;;;;;;;29.60;47.56;100795.41;4979150;28;20045;-67
2022/08/14 09:58:15;;;;;;;12.10;7.15;;;;;;;29.74;48.50;100796.16;4985139;28;20043;-67
2022/08/14 10:00:44;;;;;;;9.57;7.50;;;;;;;29.82;46.05;100804.97;4985383;28;20062;-67
2022/08/14 10:03:23;;;;;;;7.05;6.25;;;;;;;29.71;46.60;100800.16;4974446;28;20045;-67
2022/08/14 10:05:48;;;;;;;8.95;6.78;;;;;;;30.11;48.70;100786.06;4978532;28;20061;-67
2022/08/14 10:08:19;;;;;;;8.27;6.88;;;;;;;30.09;47.50;100780.78;4983012;28;20050;-67
2022/08/14 10:10:46;;;;;;;7.80;6.50;;;;;;;30.04;46.10;100771.53;5007324;28;20058;-67
2022/08/14 10:13:23;;;;;;;7.68;6.18;;;;;;;29.42;48.24;100777.75;5023251;28;20038;-67
2022/08/14 10:15:49;;;;;;;7.55;6.72;;;;;;;29.79;48.11;100779.81;5021351;28;20057;-66
2022/08/14 10:18:16;;;;;;;9.27;8.13;;;;;;;29.99;47.22;100765.88;5018831;28;20068;-67
2022/08/14 10:20:56;;;;;;;9.25;7.85;;;;;;;30.29;47.71;100766.00;4987916;28;20429;-67
2022/08/14 10:23:27;;;;;;;8.98;6.97;;;;;;;30.21;47.62;100761.63;5021385;28;20072;-69
2022/08/14 10:26:03;;;;;;;8.60;7.65;;;;;;;30.10;46.94;100762.38;5022920;28;20053;-67
2022/08/14 10:28:41;;;;;;;9.32;7.50;;;;;;;30.17;45.59;100754.91;5014198;28;20040;-66
2022/08/14 10:31:33;;;;;;;10.68;7.80;;;;;;;30.47;46.85;100745.88;5017330;28;20033;-67
2022/08/14 10:34:04;;;;;;;8.23;6.82;;;;;;;30.38;48.47;100745.38;5000957;28;20167;-67
2022/08/14 10:36:32;;;;;;;8.02;7.15;;;;;;;30.31;45.12;100742.69;5005043;28;20500;-65
2022/08/14 10:39:00;;;;;;;7.65;6.82;;;;;;;30.39;46.70;100739.63;5021395;28;20041;-66
2022/08/14 10:41:42;;;;;;;8.98;7.18;;;;;;;30.11;45.78;100739.28;5022784;28;20049;-67
2022/08/14 10:44:16;;;;;;;9.32;6.88;;;;;;;30.57;45.65;100729.66;4996052;28;20033;-70
2022/08/14 10:46:53;;;;;;;9.23;6.72;;;;;;;30.63;45.59;100726.00;5021739;28;20069;-69
2022/08/14 10:49:21;;;;;;;6.97;6.32;;;;;;;30.61;46.93;100731.72;5016059;28;20037;-67
2022/08/14 10:52:19;;;;;;;7.10;6.30;;;;;;;30.59;45.16;100736.63;5018770;28;20167;-68
2022/08/14 10:54:45;;;;;;;9.20;6.97;;;;;;;30.77;45.66;100732.19;5019692;28;20096;-67
2022/08/14 10:57:29;;;;;;;10.13;6.90;;;;;;;30.27;44.58;100729.63;5015656;28;20036;-68
2022/08/14 10:59:57;;;;;;;8.68;6.80;;;;;;;30.53;43.32;100722.97;5010841;28;20242;-67
2022/08/14 11:02:32;;;;;;;8.25;6.50;;;;;;;30.83;46.12;100723.84;5018756;28;20045;-69
2022/08/14 11:05:05;;;;;;;8.15;6.60;;;;;;;30.92;45.23;100727.09;5021520;28;20195;-67
2022/08/14 11:07:35;;;;;;;9.02;7.00;;;;;;;30.42;43.18;100716.31;5012563;28;20121;-68
2022/08/14 11:10:07;;;;;;;9.68;6.80;;;;;;;30.29;44.24;100713.72;5000890;28;20089;-68
2022/08/14 11:12:46;;;;;;;7.57;6.72;;;;;;;30.57;44.22;100710.38;5017020;28;20045;-68
2022/08/14 11:15:14;;;;;;;6.75;5.63;;;;;;;30.67;43.33;100706.03;5014349;28;20073;-69
2022/08/14 11:17:39;;;;;;;13.38;6.88;;;;;;;30.67;42.49;100702.41;5016590;28;20048;-70
2022/08/14 11:20:08;;;;;;;9.15;7.07;;;;;;;30.67;43.75;100703.28;5018861;28;20049;-70
2022/08/14 11:22:40;;;;;;;6.97;6.32;;;;;;;30.97;42.26;100696.94;5014050;28;20048;-70
2022/08/14 11:25:08;;;;;;;7.32;6.03;;;;;;;30.74;42.66;100708.72;5015302;28;20045;-70
2022/08/14 11:27:33;;;;;;;6.97;6.28;;;;;;;30.82;43.06;100697.34;5017920;28;20043;-70
2022/08/14 11:30:29;;;;;;;7.88;5.88;;;;;;;30.81;42.33;100703.94;5018802;28;20799;-69
2022/08/14 11:32:57;;;;;;;8.85;6.53;;;;;;;30.93;40.83;100685.56;4998338;28;20120;-70
2022/08/14 11:35:29;;;;;;;8.18;6.35;;;;;;;31.18;42.42;100688.13;5025363;28;20080;-70